Time;durP1;ratioP1;P1;durP2;ratioP2;P2;SDS_P1;SDS_P2;PMS_P1;PMS_P2;Temp;Humidity;BMP_temperature;BMP_pressure;BME280_temperature;BME280_humidity;BME280_pressure;Samples;Min_cycle;Max_cycle;Signal;HPM_P1;HPM_P2
2023/07/15 00:01:43;;;;;;;5.17;4.77;;;20.00;55.30;;;;;;6249495;28;20234;-82
2023/07/15 00:04:46;;;;;;;4.50;4.20;;;20.00;55.50;;;;;;6248939;28;20270;-83
2023/07/15 00:07:49;;;;;;;5.20;4.70;;;20.10;55.50;;;;;;6224497;28;20296;-82
2023/07/15 00:10:53;;;;;;;4.87;4.47;;;20.10;55.40;;;;;;6246712;28;20249;-77
2023/07/15 00:14:00;;;;;;;4.90;4.70;;;20.10;55.50;;;;;;6241261;28;20230;-81
2023/07/15 00:17:03;;;;;;;5.13;4.83;;;20.10;55.50;;;;;;6252731;28;20238;-83
2023/07/15 00:20:10;;;;;;;5.30;5.00;;;20.20;55.50;;;;;;6253998;28;20238;-83
2023/07/15 00:23:18;;;;;;;4.97;4.70;;;20.20;55.60;;;;;;6243582;28;20298;-82
2023/07/15 00:26:21;;;;;;;5.10;4.80;;;20.30;55.70;;;;;;6240393;28;20323;-84
2023/07/15 00:29:27;;;;;;;4.70;4.50;;;20.30;55.90;;;;;;6258100;28;20238;-81
2023/07/15 00:32:30;;;;;;;5.37;4.87;;;20.30;55.80;;;;;;6246079;28;20246;-82
2023/07/15 00:35:33;;;;;;;5.03;4.73;;;20.30;55.80;;;;;;6246832;28;20257;-84
2023/07/15 00:38:37;;;;;;;5.33;4.83;;;20.30;56.20;;;;;;6246657;28;20239;-83
2023/07/15 00:41:41;;;;;;;5.47;5.17;;;20.30;56.30;;;;;;6247045;28;20234;-80
2023/07/15 00:44:46;;;;;;;4.93;4.63;;;20.30;56.10;;;;;;6227765;28;20239;-80
2023/07/15 00:48:01;;;;;;;4.90;4.70;;;20.30;56.30;;;;;;6242062;28;20245;-81
2023/07/15 00:51:04;;;;;;;5.00;4.60;;;20.30;56.30;;;;;;6241563;28;20238;-82
2023/07/15 00:54:10;;;;;;;4.63;4.43;;;20.20;56.50;;;;;;6238810;28;20234;-80
2023/07/15 00:57:16;;;;;;;4.60;4.40;;;20.10;56.60;;;;;;6239422;28;20250;-82
2023/07/15 01:00:19;;;;;;;7.50;5.10;;;20.00;56.80;;;;;;6246835;28;20234;-82
2023/07/15 01:03:24;;;;;;;7.93;5.07;;;20.00;57.00;;;;;;6231852;28;20282;-83
2023/07/15 01:06:28;;;;;;;5.07;4.77;;;20.00;57.30;;;;;;6243745;28;20758;-77
2023/07/15 01:09:33;;;;;;;5.57;5.17;;;19.90;57.40;;;;;;6232625;28;20231;-81
2023/07/15 01:12:36;;;;;;;5.67;5.30;;;19.80;57.50;;;;;;6249793;28;20235;-83
2023/07/15 01:15:39;;;;;;;4.73;4.53;;;19.90;57.60;;;;;;6249626;28;20246;-82
2023/07/15 01:18:44;;;;;;;5.13;4.70;;;19.80;57.70;;;;;;6251726;28;20329;-81
2023/07/15 01:21:50;;;;;;;4.97;4.70;;;19.70;57.80;;;;;;6231518;28;20313;-83
2023/07/15 01:24:54;;;;;;;4.80;4.50;;;19.70;58.00;;;;;;6251572;28;20301;-80
2023/07/15 01:27:57;;;;;;;5.13;4.77;;;19.60;58.10;;;;;;6246706;28;20231;-85
2023/07/15 01:31:01;;;;;;;4.97;4.73;;;19.50;58.30;;;;;;6247508;28;20289;-80
2023/07/15 01:34:04;;;;;;;4.70;4.40;;;19.50;58.50;;;;;;6251730;28;20885;-82
2023/07/15 01:37:07;;;;;;;4.90;4.67;;;19.50;58.60;;;;;;6244042;28;20238;-83
2023/07/15 01:40:13;;;;;;;5.00;4.80;;;19.50;58.50;;;;;;6231964;28;20247;-83
2023/07/15 01:43:16;;;;;;;5.30;4.90;;;19.40;58.70;;;;;;6230176;28;20239;-80
2023/07/15 01:46:19;;;;;;;4.90;4.60;;;19.30;58.80;;;;;;6252787;28;20243;-80
2023/07/15 01:49:22;;;;;;;5.43;5.00;;;19.30;59.00;;;;;;6257162;28;20313;-82
2023/07/15 01:52:27;;;;;;;5.30;4.90;;;19.30;59.20;;;;;;6238729;28;20335;-81
2023/07/15 01:55:31;;;;;;;5.33;5.03;;;19.20;59.50;;;;;;6233495;28;20234;-80
2023/07/15 01:58:34;;;;;;;4.60;4.40;;;19.10;59.40;;;;;;6231111;28;20244;-81
2023/07/15 02:01:39;;;;;;;5.97;5.40;;;19.10;59.60;;;;;;6253515;28;20721;-84
2023/07/15 02:04:42;;;;;;;6.37;5.60;;;19.10;59.80;;;;;;6240507;28;20326;-78
2023/07/15 02:07:45;;;;;;;5.17;4.83;;;19.10;60.00;;;;;;6247420;28;20240;-83
2023/07/15 02:10:50;;;;;;;5.40;5.10;;;19.10;60.20;;;;;;6236480;28;20242;-81
2023/07/15 02:13:54;;;;;;;5.37;4.97;;;19.00;60.20;;;;;;6242658;28;20239;-82
2023/07/15 02:16:58;;;;;;;5.67;5.17;;;18.90;60.30;;;;;;6243038;28;20231;-83
2023/07/15 02:20:01;;;;;;;5.87;5.37;;;18.90;60.30;;;;;;6254917;28;20261;-82
2023/07/15 02:23:04;;;;;;;6.57;5.93;;;18.90;60.60;;;;;;6259544;28;20636;-81
2023/07/15 02:26:09;;;;;;;5.47;4.97;;;18.90;60.50;;;;;;6248339;28;20234;-80
2023/07/15 02:29:13;;;;;;;5.60;5.20;;;18.80;60.60;;;;;;6258671;28;20249;-81
2023/07/15 02:32:35;;;;;;;5.43;5.00;;;18.80;60.80;;;;;;6244988;28;20263;-82
2023/07/15 02:35:43;;;;;;;4.40;4.20;;;18.80;60.90;;;;;;6242356;28;20227;-81
2023/07/15 02:38:46;;;;;;;5.50;5.03;;;18.70;60.90;;;;;;6260938;28;20960;-82
2023/07/15 02:41:51;;;;;;;4.67;4.47;;;18.70;61.30;;;;;;6248136;28;20623;-82
2023/07/15 02:44:54;;;;;;;5.03;4.83;;;18.60;61.30;;;;;;6248119;28;20317;-83
2023/07/15 02:47:57;;;;;;;5.47;5.27;;;18.60;61.50;;;;;;6236777;28;20321;-79
2023/07/15 02:51:00;;;;;;;5.40;5.00;;;18.60;61.80;;;;;;6248503;28;20324;-83
2023/07/15 02:54:03;;;;;;;5.33;5.00;;;18.60;61.90;;;;;;6246308;28;20246;-83
2023/07/15 02:57:08;;;;;;;6.00;5.60;;;18.50;62.20;;;;;;6243198;28;20229;-80
2023/07/15 03:00:15;;;;;;;5.73;5.50;;;18.50;62.20;;;;;;6237896;28;20619;-82
2023/07/15 03:03:19;;;;;;;5.20;5.00;;;18.50;61.90;;;;;;6261819;28;20236;-80
2023/07/15 03:06:22;;;;;;;5.53;5.23;;;18.50;62.00;;;;;;6236257;28;20647;-84
2023/07/15 03:09:25;;;;;;;5.73;5.23;;;18.50;62.20;;;;;;6262275;28;20230;-80
2023/07/15 03:12:29;;;;;;;5.37;5.07;;;18.50;62.20;;;;;;6255407;28;20245;-84
2023/07/15 03:15:33;;;;;;;5.10;4.90;;;18.40;62.30;;;;;;6251438;28;20783;-85
2023/07/15 03:18:36;;;;;;;5.57;5.20;;;18.40;62.40;;;;;;6256406;28;20242;-82
2023/07/15 03:21:40;;;;;;;5.43;5.13;;;18.30;62.30;;;;;;6258944;28;20237;-83
2023/07/15 03:24:43;;;;;;;6.30;5.80;;;18.30;62.60;;;;;;6233834;28;20703;-80
2023/07/15 03:27:47;;;;;;;5.20;5.00;;;18.30;62.70;;;;;;6255756;28;20728;-81
2023/07/15 03:30:52;;;;;;;5.33;5.10;;;18.30;62.60;;;;;;6250717;28;20778;-77
2023/07/15 03:33:55;;;;;;;7.23;5.30;;;18.30;62.50;;;;;;6228406;28;20373;-80
2023/07/15 03:36:58;;;;;;;6.27;5.90;;;18.40;62.60;;;;;;6240842;28;20848;-80
2023/07/15 03:40:07;;;;;;;5.83;5.50;;;18.40;62.70;;;;;;6232123;28;20226;-79
2023/07/15 03:43:11;;;;;;;6.50;6.10;;;18.40;62.80;;;;;;6222262;28;20242;-79
2023/07/15 03:46:15;;;;;;;5.40;5.10;;;18.40;62.80;;;;;;6253298;28;20738;-81
2023/07/15 03:49:18;;;;;;;6.03;5.73;;;18.30;62.70;;;;;;6225591;28;20325;-80
2023/07/15 03:52:21;;;;;;;14.47;6.47;;;18.30;62.90;;;;;;6249472;28;20238;-82
2023/07/15 03:55:25;;;;;;;6.00;5.60;;;18.40;63.20;;;;;;6271881;28;20257;-79
2023/07/15 03:58:30;;;;;;;6.33;5.83;;;18.40;63.00;;;;;;6232737;28;20627;-82
2023/07/15 04:01:35;;;;;;;5.53;5.23;;;18.40;63.20;;;;;;6236778;28;20262;-81
2023/07/15 04:04:38;;;;;;;6.20;5.80;;;18.40;63.10;;;;;;6237991;28;20698;-78
2023/07/15 04:07:42;;;;;;;6.47;5.87;;;18.40;63.10;;;;;;6239952;28;20315;-77
2023/07/15 04:10:46;;;;;;;5.27;5.07;;;18.40;63.00;;;;;;6231166;28;20251;-78
2023/07/15 04:13:51;;;;;;;6.97;6.23;;;18.50;63.00;;;;;;6224271;28;20238;-80
2023/07/15 04:16:54;;;;;;;6.83;6.23;;;18.50;63.10;;;;;;6229402;28;20326;-79
2023/07/15 04:19:57;;;;;;;6.80;6.40;;;18.50;63.10;;;;;;6230465;28;20330;-77
2023/07/15 04:23:00;;;;;;;6.87;6.30;;;18.50;63.10;;;;;;6239195;28;20293;-80
2023/07/15 04:26:03;;;;;;;6.73;6.17;;;18.50;63.20;;;;;;6237653;28;20241;-78
2023/07/15 04:29:08;;;;;;;7.97;6.40;;;18.60;63.10;;;;;;6235781;28;20318;-79
2023/07/15 04:32:11;;;;;;;6.23;5.73;;;18.60;63.10;;;;;;6238270;28;20875;-80
2023/07/15 04:35:14;;;;;;;5.30;5.13;;;18.70;63.10;;;;;;6233906;28;20237;-80
2023/07/15 04:38:19;;;;;;;6.50;5.90;;;18.70;62.90;;;;;;6228064;28;20737;-81
2023/07/15 04:41:22;;;;;;;5.53;5.23;;;18.80;62.80;;;;;;6237848;28;20246;-80
2023/07/15 04:44:27;;;;;;;6.70;5.97;;;18.90;62.70;;;;;;6229988;28;20231;-79
2023/07/15 04:47:30;;;;;;;6.53;6.03;;;19.00;62.60;;;;;;6224088;28;20272;-79
2023/07/15 04:50:33;;;;;;;5.50;5.30;;;19.00;62.70;;;;;;6228227;28;20242;-79
2023/07/15 04:53:42;;;;;;;5.97;5.57;;;19.10;62.60;;;;;;6226603;28;20311;-79
2023/07/15 04:56:46;;;;;;;6.17;5.87;;;19.20;62.50;;;;;;6226373;28;20580;-79
2023/07/15 04:59:52;;;;;;;6.40;6.00;;;19.20;62.50;;;;;;6239742;28;20319;-79
2023/07/15 05:02:58;;;;;;;6.03;5.60;;;19.40;62.40;;;;;;6222348;28;20242;-78
2023/07/15 05:06:01;;;;;;;6.10;5.60;;;19.50;62.20;;;;;;6229584;28;20330;-79
2023/07/15 05:09:06;;;;;;;5.50;5.13;;;19.70;62.10;;;;;;6236687;28;20243;-80
2023/07/15 05:12:11;;;;;;;5.43;5.23;;;19.70;62.00;;;;;;6238467;28;20715;-79
2023/07/15 05:15:19;;;;;;;5.67;5.27;;;20.00;61.70;;;;;;6239348;28;20235;-80
2023/07/15 05:18:22;;;;;;;5.80;5.50;;;20.20;61.50;;;;;;6225448;28;20241;-79
2023/07/15 05:21:26;;;;;;;5.47;5.27;;;20.40;61.00;;;;;;6248087;28;20316;-80
2023/07/15 05:24:29;;;;;;;6.20;5.63;;;20.60;60.80;;;;;;6237939;28;20240;-79
2023/07/15 05:27:32;;;;;;;5.77;5.47;;;20.90;60.40;;;;;;6236162;28;20325;-79
2023/07/15 05:30:38;;;;;;;6.37;5.23;;;21.10;59.90;;;;;;6240704;28;20237;-80
2023/07/15 05:33:44;;;;;;;5.73;5.20;;;21.40;59.50;;;;;;6226475;28;20278;-79
2023/07/15 05:36:48;;;;;;;6.30;5.80;;;21.70;59.00;;;;;;6236889;28;20234;-82
2023/07/15 05:39:52;;;;;;;6.17;5.70;;;21.90;58.60;;;;;;6226026;28;20245;-81
2023/07/15 05:42:55;;;;;;;5.27;5.07;;;22.00;58.40;;;;;;6237778;28;20250;-80
2023/07/15 05:45:59;;;;;;;5.90;5.50;;;22.30;58.00;;;;;;6222176;28;20310;-79
2023/07/15 05:49:04;;;;;;;6.90;5.90;;;22.50;57.40;;;;;;6225576;28;20239;-81
2023/07/15 05:52:08;;;;;;;6.33;5.23;;;22.50;57.30;;;;;;6231056;28;20989;-78
2023/07/15 05:55:11;;;;;;;6.30;5.30;;;22.90;56.70;;;;;;6232787;28;20239;-81
2023/07/15 05:58:14;;;;;;;6.00;5.50;;;23.10;56.50;;;;;;6234818;28;20288;-80
2023/07/15 06:01:19;;;;;;;10.77;5.90;;;23.50;56.10;;;;;;6256475;28;20238;-79
2023/07/15 06:04:22;;;;;;;6.13;5.53;;;23.60;55.10;;;;;;6251248;28;20235;-81
2023/07/15 06:07:25;;;;;;;5.73;5.40;;;23.60;55.00;;;;;;6243029;28;20234;-80
2023/07/15 06:10:28;;;;;;;5.73;5.33;;;24.00;54.70;;;;;;6239768;28;20269;-80
2023/07/15 06:13:31;;;;;;;6.13;5.63;;;24.20;54.10;;;;;;6241302;28;20327;-80
2023/07/15 06:16:36;;;;;;;5.13;4.77;;;24.60;53.70;;;;;;6235892;28;20336;-81
2023/07/15 06:19:39;;;;;;;5.03;4.70;;;25.00;52.90;;;;;;6246040;28;20236;-79
2023/07/15 06:22:42;;;;;;;4.97;4.67;;;25.20;52.50;;;;;;6234675;28;20242;-81
2023/07/15 06:25:46;;;;;;;5.10;4.90;;;25.30;51.80;;;;;;6243845;28;20239;-81
2023/07/15 06:28:49;;;;;;;5.00;4.80;;;25.50;52.10;;;;;;6242281;28;20237;-81
2023/07/15 06:31:54;;;;;;;5.30;4.93;;;25.50;51.60;;;;;;6239526;28;20238;-81
2023/07/15 06:34:57;;;;;;;4.67;4.17;;;25.50;51.00;;;;;;6244078;28;20239;-79
2023/07/15 06:38:00;;;;;;;6.13;5.63;;;25.80;51.20;;;;;;6250626;28;20297;-80
2023/07/15 06:41:05;;;;;;;6.13;5.40;;;26.00;51.10;;;;;;6226760;28;20242;-78
2023/07/15 06:44:08;;;;;;;5.47;5.00;;;26.20;50.40;;;;;;6231914;28;20235;-84
2023/07/15 06:47:13;;;;;;;5.77;4.80;;;26.40;50.40;;;;;;6239973;28;20753;-83
2023/07/15 06:50:16;;;;;;;5.20;5.00;;;26.40;50.30;;;;;;6246171;28;20304;-82
2023/07/15 06:53:20;;;;;;;5.43;4.83;;;26.70;49.90;;;;;;6239798;28;20238;-81
2023/07/15 06:56:23;;;;;;;5.37;5.10;;;26.90;49.80;;;;;;6233348;28;20299;-80
2023/07/15 06:59:29;;;;;;;5.80;5.00;;;27.10;49.60;;;;;;6246551;28;20804;-83
2023/07/15 07:02:34;;;;;;;5.40;5.10;;;27.30;48.60;;;;;;6252630;28;20634;-81
2023/07/15 07:05:37;;;;;;;4.87;4.57;;;27.30;49.00;;;;;;6240645;28;20229;-82
2023/07/15 07:08:41;;;;;;;5.27;4.77;;;27.30;49.00;;;;;;6236044;28;20234;-81
2023/07/15 07:11:44;;;;;;;5.23;4.37;;;27.50;48.30;;;;;;6247989;28;20238;-83
2023/07/15 07:14:47;;;;;;;5.70;5.40;;;27.70;48.00;;;;;;6230854;28;20746;-80
2023/07/15 07:17:52;;;;;;;4.27;3.90;;;27.70;48.60;;;;;;6257811;28;20643;-81
2023/07/15 07:20:58;;;;;;;5.20;4.90;;;27.70;48.70;;;;;;6249222;28;20334;-80
2023/07/15 07:24:01;;;;;;;6.17;5.17;;;27.50;48.20;;;;;;6243301;28;20236;-82
2023/07/15 07:27:05;;;;;;;5.10;4.63;;;27.50;48.90;;;;;;6252696;28;20248;-80
2023/07/15 07:30:09;;;;;;;6.07;4.93;;;27.30;50.00;;;;;;6249834;28;20238;-80
2023/07/15 07:33:14;;;;;;;4.23;3.93;;;27.40;49.30;;;;;;6235069;28;21196;-83
2023/07/15 07:36:17;;;;;;;4.93;4.63;;;27.60;48.60;;;;;;6244894;28;20242;-81
2023/07/15 07:39:20;;;;;;;5.23;4.40;;;27.80;49.10;;;;;;6258553;28;20238;-82
2023/07/15 07:42:23;;;;;;;4.67;4.40;;;27.70;48.30;;;;;;6239264;28;20749;-80
2023/07/15 07:45:26;;;;;;;6.20;4.43;;;27.70;48.50;;;;;;6225645;28;20239;-81
2023/07/15 07:48:31;;;;;;;4.73;4.50;;;27.70;48.10;;;;;;6227431;28;20265;-82
2023/07/15 07:51:34;;;;;;;5.40;5.10;;;27.80;47.40;;;;;;6225950;28;20321;-81
2023/07/15 07:54:39;;;;;;;5.10;4.70;;;27.60;48.50;;;;;;6240906;28;20243;-79
2023/07/15 07:57:42;;;;;;;4.87;4.27;;;27.70;48.50;;;;;;6235887;28;20226;-82
2023/07/15 08:00:46;;;;;;;4.50;4.30;;;27.70;47.70;;;;;;6235782;28;20281;-80
2023/07/15 08:03:50;;;;;;;5.60;5.10;;;27.70;47.70;;;;;;6239176;28;20308;-79
2023/07/15 08:06:53;;;;;;;5.83;4.17;;;27.60;47.70;;;;;;6236454;28;20239;-81
2023/07/15 08:09:56;;;;;;;4.87;4.67;;;27.60;47.60;;;;;;6251188;28;20237;-80
2023/07/15 08:13:02;;;;;;;5.50;5.10;;;27.50;47.80;;;;;;6241695;28;20298;-80
2023/07/15 08:16:06;;;;;;;4.87;4.57;;;27.80;47.50;;;;;;6246569;28;20734;-80
2023/07/15 08:19:11;;;;;;;4.23;3.93;;;27.90;47.50;;;;;;6234605;28;20238;-79
2023/07/15 08:22:14;;;;;;;4.77;4.20;;;28.00;47.10;;;;;;6238458;28;20438;-81
2023/07/15 08:25:17;;;;;;;4.57;4.33;;;27.90;47.30;;;;;;6241315;28;20234;-79
2023/07/15 08:28:20;;;;;;;5.53;4.67;;;27.80;47.90;;;;;;6228180;28;20310;-81
2023/07/15 08:31:24;;;;;;;4.37;4.17;;;27.90;47.60;;;;;;6226019;28;20238;-82
2023/07/15 08:34:33;;;;;;;4.37;4.20;;;28.00;47.60;;;;;;6238594;28;20656;-79
2023/07/15 08:37:36;;;;;;;5.77;4.40;;;28.10;47.20;;;;;;6234613;28;20235;-80
2023/07/15 08:40:41;;;;;;;6.30;4.00;;;28.20;47.20;;;;;;6234425;28;20326;-80
2023/07/15 08:43:45;;;;;;;5.03;4.33;;;28.20;47.60;;;;;;6249596;28;20892;-81
2023/07/15 08:46:54;;;;;;;4.40;4.10;;;28.30;46.70;;;;;;6242559;28;20234;-81
2023/07/15 08:50:03;;;;;;;4.93;4.43;;;28.60;47.60;;;;;;6252714;28;20734;-81
2023/07/15 08:53:06;;;;;;;4.10;3.90;;;28.70;47.10;;;;;;6259626;28;20241;-81
2023/07/15 08:56:11;;;;;;;4.40;4.00;;;29.00;47.50;;;;;;6247274;28;20736;-80
2023/07/15 08:59:18;;;;;;;4.45;4.03;;;29.20;46.00;;;;;;6221416;28;20778;-83
2023/07/15 09:02:21;;;;;;;5.25;3.90;;;29.50;46.50;;;;;;6237335;28;20327;-80
2023/07/15 09:05:27;;;;;;;4.10;3.78;;;29.60;45.90;;;;;;6240002;28;20243;-80
2023/07/15 09:08:33;;;;;;;3.58;3.47;;;29.70;45.40;;;;;;6250485;28;20241;-82
2023/07/15 09:11:40;;;;;;;4.07;3.97;;;30.00;44.90;;;;;;6236892;28;20240;-80
2023/07/15 09:14:44;;;;;;;8.90;3.33;;;30.10;44.60;;;;;;6252146;28;20230;-83
2023/07/15 09:17:57;;;;;;;3.95;3.58;;;30.30;45.20;;;;;;6226949;28;20253;-80
2023/07/15 09:21:18;;;;;;;3.97;3.67;;;30.20;44.30;;;;;;6225514;28;20259;-82
2023/07/15 09:24:23;;;;;;;4.57;3.80;;;30.30;45.50;;;;;;6242367;28;20241;-80
2023/07/15 09:27:27;;;;;;;5.20;3.50;;;30.40;44.80;;;;;;6232182;28;20285;-81
2023/07/15 09:30:30;;;;;;;4.10;3.03;;;30.50;44.70;;;;;;6234675;28;20686;-81
2023/07/15 09:33:35;;;;;;;5.50;5.20;;;30.70;44.20;;;;;;6238169;28;20237;-79
2023/07/15 09:36:39;;;;;;;3.40;3.20;;;30.70;44.40;;;;;;6235295;28;20258;-79
2023/07/15 09:39:45;;;;;;;3.13;2.90;;;30.80;44.10;;;;;;6230157;28;20258;-81
2023/07/15 09:43:05;;;;;;;3.30;3.10;;;30.90;43.80;;;;;;6240477;28;20274;-80
2023/07/15 09:46:09;;;;;;;3.53;3.35;;;31.10;43.70;;;;;;6242670;28;20239;-80
2023/07/15 09:49:12;;;;;;;3.47;3.17;;;31.20;43.90;;;;;;6237627;28;20231;-78
2023/07/15 09:52:17;;;;;;;3.85;3.58;;;31.00;45.00;;;;;;6239419;28;20891;-80
2023/07/15 09:55:24;;;;;;;7.43;3.83;;;31.00;44.30;;;;;;6226871;28;20627;-79
2023/07/15 09:58:29;;;;;;;4.32;3.58;;;31.00;43.70;;;;;;6237930;28;20268;-80
2023/07/15 10:01:36;;;;;;;5.38;3.40;;;30.90;44.20;;;;;;6227690;28;20404;-81
2023/07/15 10:04:44;;;;;;;3.92;3.08;;;31.00;43.70;;;;;;6240453;28;20313;-81
2023/07/15 10:07:52;;;;;;;3.33;3.22;;;31.00;43.60;;;;;;6235069;28;20230;-82
2023/07/15 10:10:55;;;;;;;3.40;3.30;;;31.10;44.20;;;;;;6240428;28;20373;-81
2023/07/15 10:13:59;;;;;;;3.83;3.10;;;31.20;44.10;;;;;;6238937;28;20318;-80
2023/07/15 10:17:13;;;;;;;3.50;3.25;;;31.30;43.30;;;;;;6250324;28;20319;-81
2023/07/15 10:20:17;;;;;;;3.40;3.20;;;31.40;43.60;;;;;;6232260;28;20251;-83
2023/07/15 10:23:27;;;;;;;4.78;3.40;;;31.30;43.60;;;;;;6250102;28;20753;-80
2023/07/15 10:26:32;;;;;;;3.05;2.85;;;31.50;43.80;;;;;;6255003;28;20233;-80
2023/07/15 10:29:37;;;;;;;3.58;3.25;;;31.60;43.30;;;;;;6242311;28;20258;-79
2023/07/15 10:33:10;;;;;;;3.33;3.03;;;31.70;44.20;;;;;;6234284;28;20784;-81
2023/07/15 10:36:24;;;;;;;3.25;3.10;;;31.60;42.60;;;;;;6244374;28;20230;-80
2023/07/15 10:39:33;;;;;;;3.25;2.97;;;31.60;41.90;;;;;;6238173;28;20239;-82
2023/07/15 10:42:38;;;;;;;3.47;3.28;;;31.70;42.50;;;;;;6231064;28;20280;-82
2023/07/15 10:45:43;;;;;;;3.20;2.80;;;31.70;41.70;;;;;;6247212;28;20759;-82
2023/07/15 10:48:46;;;;;;;2.50;2.50;;;31.90;41.40;;;;;;6237760;28;20235;-81
2023/07/15 10:51:52;;;;;;;3.20;3.10;;;31.80;40.80;;;;;;6255833;28;20240;-81
2023/07/15 10:54:57;;;;;;;3.97;3.33;;;31.90;40.10;;;;;;6236713;28;20599;-82
2023/07/15 10:58:08;;;;;;;3.10;2.80;;;31.90;40.40;;;;;;6246299;28;20751;-82
2023/07/15 11:01:13;;;;;;;3.75;3.40;;;32.00;40.40;;;;;;6241167;28;20643;-80
2023/07/15 11:04:20;;;;;;;3.03;2.92;;;32.10;41.10;;;;;;6251383;28;20315;-82
2023/07/15 11:07:28;;;;;;;3.35;3.03;;;32.10;40.80;;;;;;6229980;28;20231;-81
2023/07/15 11:10:36;;;;;;;3.33;3.13;;;32.10;40.80;;;;;;6232032;28;20750;-80
2023/07/15 11:13:41;;;;;;;3.45;3.25;;;32.20;41.10;;;;;;6257906;28;20254;-80
2023/07/15 11:16:45;;;;;;;3.47;3.33;;;32.40;41.30;;;;;;6217761;28;20747;-80
2023/07/15 11:19:48;;;;;;;4.03;3.67;;;32.50;41.60;;;;;;6233001;28;20750;-81
2023/07/15 11:22:52;;;;;;;3.83;3.63;;;32.40;41.80;;;;;;6243949;28;20239;-81
2023/07/15 11:25:57;;;;;;;3.47;3.38;;;32.50;41.30;;;;;;6250221;28;20240;-81
2023/07/15 11:29:00;;;;;;;3.83;3.30;;;32.60;41.80;;;;;;6226494;28;20250;-81
2023/07/15 11:32:06;;;;;;;4.75;4.47;;;32.60;40.60;;;;;;6231321;28;20379;-80
2023/07/15 11:35:13;;;;;;;3.60;3.38;;;32.60;41.10;;;;;;6251091;28;20230;-82
2023/07/15 11:38:29;;;;;;;3.20;2.92;;;32.80;40.30;;;;;;6238224;28;20318;-81
2023/07/15 11:41:36;;;;;;;4.43;2.42;;;33.00;39.50;;;;;;6251796;28;20329;-80
2023/07/15 11:44:41;;;;;;;2.63;2.50;;;33.00;38.70;;;;;;6244050;28;20258;-81
2023/07/15 11:47:44;;;;;;;2.65;2.55;;;33.00;38.50;;;;;;6245004;28;20335;-80
2023/07/15 11:50:48;;;;;;;2.42;2.33;;;33.00;39.70;;;;;;6244666;28;20702;-81
2023/07/15 11:53:53;;;;;;;2.70;2.60;;;33.00;38.40;;;;;;6256025;28;20229;-81
2023/07/15 11:56:57;;;;;;;2.70;2.60;;;33.00;38.80;;;;;;6239732;28;20883;-79
2023/07/15 12:00:02;;;;;;;2.70;2.70;;;33.00;37.80;;;;;;6226746;28;20246;-80
2023/07/15 12:03:08;;;;;;;2.72;2.63;;;33.10;38.00;;;;;;6240093;28;20241;-80
2023/07/15 12:06:16;;;;;;;3.08;2.92;;;33.30;38.00;;;;;;6240530;28;20361;-81
2023/07/15 12:09:21;;;;;;;2.85;2.50;;;33.50;38.50;;;;;;6227615;28;20620;-81
2023/07/15 12:12:26;;;;;;;3.63;2.40;;;33.60;37.90;;;;;;6238705;28;20258;-84
2023/07/15 12:15:29;;;;;;;2.42;2.25;;;33.60;38.30;;;;;;6256089;28;20297;-80
2023/07/15 12:18:32;;;;;;;2.97;2.25;;;33.80;37.50;;;;;;6242335;28;20233;-81
2023/07/15 12:21:35;;;;;;;2.40;2.30;;;33.80;37.40;;;;;;6244279;28;20250;-81
2023/07/15 12:24:38;;;;;;;2.35;2.35;;;33.60;37.90;;;;;;6246268;28;20647;-80
2023/07/15 12:27:47;;;;;;;1.98;1.88;;;33.70;37.50;;;;;;6230490;28;20239;-81
2023/07/15 12:30:50;;;;;;;2.40;2.17;;;33.80;37.30;;;;;;6229030;28;20230;-81
2023/07/15 12:33:53;;;;;;;2.40;2.30;;;33.80;37.60;;;;;;6218669;28;20321;-82
2023/07/15 12:36:58;;;;;;;2.17;2.17;;;33.80;37.40;;;;;;6245426;28;20602;-81
2023/07/15 12:40:01;;;;;;;2.88;2.75;;;33.70;37.20;;;;;;6237479;28;20276;-80
2023/07/15 12:43:05;;;;;;;1.83;1.83;;;33.80;37.60;;;;;;6234300;28;20733;-79
2023/07/15 12:46:09;;;;;;;3.67;2.65;;;33.90;37.60;;;;;;6234291;28;20315;-79
2023/07/15 12:49:12;;;;;;;2.08;1.85;;;34.10;37.00;;;;;;6261352;28;20238;-81
2023/07/15 12:52:17;;;;;;;2.58;2.20;;;34.10;36.40;;;;;;6236843;28;20253;-81
2023/07/15 12:55:21;;;;;;;2.40;2.30;;;34.20;36.60;;;;;;6233282;28;20226;-80
2023/07/15 12:58:26;;;;;;;1.98;1.98;;;34.10;36.50;;;;;;6249545;28;20227;-80
2023/07/15 13:01:29;;;;;;;2.58;1.92;;;34.20;36.10;;;;;;6236461;28;20241;-81
2023/07/15 13:04:33;;;;;;;2.25;2.10;;;34.30;36.40;;;;;;6241039;28;20731;-82
2023/07/15 13:07:36;;;;;;;2.35;2.25;;;34.40;36.30;;;;;;6232251;28;20747;-80
2023/07/15 13:10:39;;;;;;;3.60;2.47;;;34.70;37.00;;;;;;6241302;28;20234;-81
2023/07/15 13:13:44;;;;;;;2.10;1.90;;;35.00;36.00;;;;;;6249963;28;20321;-81
2023/07/15 13:16:51;;;;;;;2.45;2.25;;;35.10;36.70;;;;;;6231856;28;20754;-81
2023/07/15 13:19:54;;;;;;;3.15;2.15;;;35.00;36.10;;;;;;6249653;28;20238;-82
2023/07/15 13:22:57;;;;;;;2.10;2.00;;;34.50;36.00;;;;;;6247215;28;20250;-81
2023/07/15 13:26:00;;;;;;;1.75;1.75;;;34.60;36.10;;;;;;6241458;28;20249;-83
2023/07/15 13:29:05;;;;;;;2.20;2.13;;;34.90;36.90;;;;;;6239497;28;20738;-81
2023/07/15 13:32:09;;;;;;;2.72;2.45;;;35.10;35.80;;;;;;6248901;28;20320;-81
2023/07/15 13:35:12;;;;;;;2.00;2.00;;;35.20;36.00;;;;;;6222528;28;20238;-83
2023/07/15 13:38:15;;;;;;;2.05;1.95;;;35.00;36.10;;;;;;6241311;28;20248;-82
2023/07/15 13:41:18;;;;;;;5.30;1.80;;;35.00;35.80;;;;;;6242007;28;20251;-82
2023/07/15 13:44:23;;;;;;;1.83;1.80;;;35.00;36.00;;;;;;6246701;28;20239;-85
2023/07/15 13:47:30;;;;;;;2.08;1.98;;;35.00;36.10;;;;;;6225623;28;20237;-81
2023/07/15 13:50:33;;;;;;;2.50;2.03;;;34.80;36.10;;;;;;6229483;28;20235;-83
2023/07/15 13:53:36;;;;;;;1.83;1.83;;;34.80;36.40;;;;;;6247979;28;20284;-83
2023/07/15 13:56:39;;;;;;;1.70;1.60;;;34.80;35.70;;;;;;6251760;28;20289;-84
2023/07/15 13:59:44;;;;;;;2.05;1.80;;;34.90;36.30;;;;;;6236899;28;20243;-83
2023/07/15 14:02:47;;;;;;;1.70;1.70;;;34.70;36.60;;;;;;6248682;28;20245;-84
2023/07/15 14:05:51;;;;;;;2.58;1.83;;;34.50;36.10;;;;;;6243061;28;20238;-83
2023/07/15 14:08:54;;;;;;;1.88;1.85;;;34.40;36.30;;;;;;6243054;28;20647;-84
2023/07/15 14:11:57;;;;;;;3.40;2.05;;;34.20;36.60;;;;;;6250109;28;20747;-85
2023/07/15 14:15:02;;;;;;;2.28;2.17;;;34.00;36.90;;;;;;6250356;28;20237;-83
2023/07/15 14:18:07;;;;;;;1.75;1.75;;;33.60;37.00;;;;;;6243542;28;20319;-81
2023/07/15 14:21:10;;;;;;;2.10;2.08;;;33.60;37.20;;;;;;6254267;28;20732;-82
2023/07/15 14:24:14;;;;;;;1.98;1.90;;;33.40;36.90;;;;;;6245633;28;20753;-82
2023/07/15 14:27:17;;;;;;;2.03;2.03;;;33.40;37.60;;;;;;6234228;28;20319;-83
2023/07/15 14:30:21;;;;;;;2.00;1.90;;;33.20;37.30;;;;;;6230240;28;20233;-80
2023/07/15 14:33:24;;;;;;;2.10;2.10;;;33.30;38.10;;;;;;6244354;28;20239;-80
2023/07/15 14:36:27;;;;;;;1.90;1.90;;;33.30;38.00;;;;;;6244003;28;20243;-80
2023/07/15 14:39:31;;;;;;;3.35;2.53;;;33.30;38.30;;;;;;6249005;28;20242;-81
2023/07/15 14:42:34;;;;;;;3.75;2.28;;;33.20;38.20;;;;;;6233002;28;20281;-83
2023/07/15 14:45:39;;;;;;;2.17;2.17;;;33.20;38.70;;;;;;6237940;28;21126;-82
2023/07/15 14:48:42;;;;;;;2.13;2.03;;;33.20;38.00;;;;;;6240992;28;20239;-83
2023/07/15 14:51:45;;;;;;;2.58;2.40;;;33.20;38.60;;;;;;6240980;28;20300;-82
2023/07/15 14:54:49;;;;;;;2.67;2.47;;;33.20;38.10;;;;;;6242484;28;20738;-82
2023/07/15 14:57:52;;;;;;;4.22;3.15;;;33.40;38.20;;;;;;6224082;28;20243;-81
2023/07/15 15:00:56;;;;;;;6.25;5.85;;;33.60;38.20;;;;;;6247506;28;20338;-82
2023/07/15 15:04:00;;;;;;;3.22;3.13;;;34.00;37.90;;;;;;6235275;28;20238;-82
2023/07/15 15:07:05;;;;;;;3.13;3.00;;;34.10;37.60;;;;;;6248452;28;20235;-82
2023/07/15 15:10:09;;;;;;;2.53;2.33;;;34.30;37.00;;;;;;6242649;28;20231;-82
2023/07/15 15:13:12;;;;;;;2.22;2.22;;;34.00;37.30;;;;;;6245473;28;20317;-80
2023/07/15 15:16:17;;;;;;;2.30;2.20;;;33.80;36.90;;;;;;6217993;28;20242;-83
2023/07/15 15:19:20;;;;;;;1.80;1.70;;;33.90;37.50;;;;;;6236159;28;20235;-81
2023/07/15 15:22:23;;;;;;;2.38;2.28;;;34.00;37.30;;;;;;6234534;28;20242;-82
2023/07/15 15:25:27;;;;;;;1.83;1.83;;;34.00;37.30;;;;;;6240189;28;20608;-82
2023/07/15 15:28:31;;;;;;;2.30;2.20;;;33.90;37.40;;;;;;6232625;28;20234;-83
2023/07/15 15:31:36;;;;;;;2.38;2.30;;;34.00;37.60;;;;;;6237748;28;20239;-80
2023/07/15 15:34:39;;;;;;;2.80;2.60;;;34.00;37.70;;;;;;6235756;28;20234;-81
2023/07/15 15:37:42;;;;;;;2.72;2.47;;;33.90;38.50;;;;;;6248325;28;20226;-82
2023/07/15 15:40:46;;;;;;;4.35;2.90;;;33.90;38.00;;;;;;6257363;28;20242;-82
2023/07/15 15:43:49;;;;;;;2.55;2.45;;;34.00;37.60;;;;;;6247053;28;21667;-82
2023/07/15 15:47:02;;;;;;;2.90;2.70;;;33.90;37.00;;;;;;6243479;28;20315;-80
2023/07/15 15:50:07;;;;;;;3.85;2.60;;;34.00;37.50;;;;;;6241699;28;20259;-82
2023/07/15 15:53:10;;;;;;;2.92;2.83;;;34.00;37.40;;;;;;6247613;28;20309;-82
2023/07/15 15:56:13;;;;;;;3.38;3.17;;;34.00;38.00;;;;;;6232817;28;20242;-81
2023/07/15 15:59:17;;;;;;;2.67;2.60;;;34.00;38.10;;;;;;6237442;28;20708;-80
2023/07/15 16:02:21;;;;;;;2.35;2.35;;;34.00;37.90;;;;;;6244849;28;20254;-81